Time;durP1;ratioP1;P1;durP2;ratioP2;P2;SDS_P1;SDS_P2;PMS_P1;PMS_P2;Temp;Humidity;BMP_temperature;BMP_pressure;BME280_temperature;BME280_humidity;BME280_pressure;Samples;Min_cycle;Max_cycle;Signal;HPM_P1;HPM_P2
2022/11/29 00:00:52;;;;;;;97.10;17.10;;;8.70;99.90;;;;;;5036927;28;20116;-85
2022/11/29 00:03:18;;;;;;;104.22;17.20;;;8.70;99.90;;;;;;5036561;28;20037;-85
2022/11/29 00:05:44;;;;;;;121.32;17.15;;;8.70;99.90;;;;;;5039876;28;20206;-85
2022/11/29 00:08:09;;;;;;;108.22;17.13;;;8.70;99.90;;;;;;5057361;28;20080;-85
2022/11/29 00:10:38;;;;;;;198.60;18.50;;;8.70;99.90;;;;;;5041418;28;20047;-85
2022/11/29 00:13:04;;;;;;;101.60;17.52;;;8.70;99.90;;;;;;5040816;28;20048;-85
2022/11/29 00:15:33;;;;;;;223.85;19.08;;;8.70;99.90;;;;;;5040951;28;20044;-85
2022/11/29 00:17:59;;;;;;;102.15;17.85;;;8.70;99.90;;;;;;5057577;28;20063;-85
2022/11/29 00:20:25;;;;;;;165.65;17.90;;;8.70;99.90;;;;;;5057651;28;20985;-86
2022/11/29 00:22:50;;;;;;;81.05;17.63;;;8.70;99.90;;;;;;5040507;28;20125;-85
2022/11/29 00:25:16;;;;;;;113.15;17.45;;;8.70;99.90;;;;;;5056376;28;20608;-86
2022/11/29 00:27:42;;;;;;;108.22;17.48;;;8.60;99.90;;;;;;5041608;28;20059;-86
2022/11/29 00:30:08;;;;;;;116.70;15.43;;;8.70;99.90;;;;;;5039297;28;20037;-85
2022/11/29 00:32:34;;;;;;;133.27;17.20;;;8.70;99.90;;;;;;5039142;28;20094;-85
2022/11/29 00:35:00;;;;;;;100.38;17.42;;;8.60;99.90;;;;;;5040683;28;20044;-86
2022/11/29 00:37:25;;;;;;;169.77;17.08;;;8.60;99.90;;;;;;5040794;28;20075;-85
2022/11/29 00:39:51;;;;;;;148.68;17.52;;;8.60;99.90;;;;;;5040689;28;20435;-86
2022/11/29 00:42:17;;;;;;;104.35;16.50;;;9.10;99.90;;;;;;5040624;28;20032;-85
2022/11/29 00:44:42;;;;;;;141.90;17.40;;;8.60;99.90;;;;;;5024189;28;20052;-85
2022/11/29 00:47:08;;;;;;;159.13;18.13;;;8.60;99.90;;;;;;5040202;28;20982;-86
2022/11/29 00:49:34;;;;;;;102.68;17.30;;;8.60;99.90;;;;;;5040310;28;20036;-86
2022/11/29 00:52:00;;;;;;;147.13;17.42;;;8.60;99.90;;;;;;5056836;28;20350;-86
2022/11/29 00:54:25;;;;;;;84.50;17.08;;;8.60;99.90;;;;;;5039469;28;20347;-86
2022/11/29 00:56:51;;;;;;;106.03;18.15;;;8.60;99.90;;;;;;5057388;28;20068;-85
2022/11/29 00:59:17;;;;;;;72.13;16.48;;;8.60;99.90;;;;;;5023285;28;20393;-85
2022/11/29 01:01:43;;;;;;;105.40;16.13;;;8.60;99.90;;;;;;5039787;28;20044;-85
2022/11/29 01:04:08;;;;;;;140.77;17.63;;;8.60;99.90;;;;;;5056844;28;20097;-85
2022/11/29 01:06:34;;;;;;;76.03;16.70;;;8.60;99.90;;;;;;5073477;28;20047;-85
2022/11/29 01:09:00;;;;;;;129.65;16.40;;;8.50;99.90;;;;;;5022993;28;20044;-85
2022/11/29 01:11:26;;;;;;;102.82;16.92;;;8.60;99.90;;;;;;5055416;28;20157;-85
2022/11/29 01:13:58;;;;;;;79.00;16.42;;;8.50;99.90;;;;;;5056170;28;20055;-86
2022/11/29 01:16:25;;;;;;;76.90;17.13;;;8.50;99.90;;;;;;5056187;28;20385;-86
2022/11/29 01:18:51;;;;;;;51.33;15.93;;;8.50;99.90;;;;;;5055576;28;20063;-86
2022/11/29 01:21:19;;;;;;;77.45;17.05;;;8.50;99.90;;;;;;5024116;28;20694;-86
2022/11/29 01:23:46;;;;;;;77.63;16.27;;;8.50;99.90;;;;;;5055944;28;20036;-85
2022/11/29 01:26:18;;;;;;;86.60;17.17;;;8.50;99.90;;;;;;5039070;28;20040;-86
2022/11/29 01:28:48;;;;;;;70.00;16.48;;;8.50;99.90;;;;;;5056260;28;20459;-85
2022/11/29 01:31:21;;;;;;;64.38;15.80;;;8.50;99.90;;;;;;5055597;28;20052;-85
2022/11/29 01:33:47;;;;;;;64.90;14.98;;;8.50;99.90;;;;;;5072580;28;20520;-86
2022/11/29 01:36:13;;;;;;;168.70;17.08;;;8.50;99.90;;;;;;5040111;28;20125;-86
2022/11/29 01:38:41;;;;;;;56.58;14.57;;;8.50;99.90;;;;;;5071723;28;20044;-86
2022/11/29 01:41:11;;;;;;;64.75;14.63;;;8.50;99.90;;;;;;5056639;28;20037;-86
2022/11/29 01:43:58;;;;;;;93.65;14.48;;;8.50;99.90;;;;;;5055689;28;20221;-86
2022/11/29 01:46:24;;;;;;;;;;;8.50;99.90;;;;;;5056010;28;20040;-85
2022/11/29 01:48:52;;;;;;;111.32;15.88;;;8.50;99.90;;;;;;5055617;28;20303;-85
2022/11/29 01:51:17;;;;;;;78.05;15.05;;;8.50;99.90;;;;;;5072064;28;20076;-86
2022/11/29 01:53:43;;;;;;;109.55;14.82;;;8.50;99.90;;;;;;5039889;28;20133;-85
2022/11/29 01:56:09;;;;;;;64.38;15.60;;;8.50;99.90;;;;;;5023120;28;20044;-85
2022/11/29 01:58:35;;;;;;;87.72;14.68;;;8.50;99.90;;;;;;5056239;28;20036;-86
2022/11/29 02:01:01;;;;;;;77.93;14.52;;;8.40;99.90;;;;;;5037896;28;20126;-86
2022/11/29 02:03:27;;;;;;;73.22;14.32;;;8.40;99.90;;;;;;5055938;28;20086;-85
2022/11/29 02:05:54;;;;;;;99.38;15.80;;;8.50;99.90;;;;;;5038955;28;20891;-86
2022/11/29 02:08:36;;;;;;;129.88;15.98;;;8.40;99.90;;;;;;5056485;28;20131;-85
2022/11/29 02:11:42;;;;;;;99.57;15.75;;;8.50;99.90;;;;;;5051057;28;20051;-85
2022/11/29 02:14:17;;;;;;;81.68;15.27;;;8.50;99.90;;;;;;5056105;28;20040;-85
2022/11/29 02:17:17;;;;;;;88.55;15.98;;;8.50;99.90;;;;;;5055088;28;20072;-85
2022/11/29 02:20:07;;;;;;;78.22;14.45;;;8.40;99.90;;;;;;5071420;28;20071;-85
2022/11/29 02:22:51;;;;;;;71.70;13.80;;;8.40;99.90;;;;;;5073212;28;20080;-85
2022/11/29 02:25:45;;;;;;;63.03;14.27;;;8.40;99.90;;;;;;5058155;28;20130;-85
2022/11/29 02:28:25;;;;;;;102.82;13.80;;;8.40;99.90;;;;;;5054464;28;20066;-85
2022/11/29 02:31:04;;;;;;;138.20;13.90;;;8.40;99.90;;;;;;5066610;28;20031;-85
2022/11/29 02:33:44;;;;;;;120.45;15.93;;;8.30;99.90;;;;;;5096266;28;20060;-86
2022/11/29 02:36:18;;;;;;;88.68;13.43;;;8.30;99.90;;;;;;5064100;28;20411;-85
2022/11/29 02:38:58;;;;;;;85.88;13.88;;;8.30;99.90;;;;;;5072523;28;20114;-86
2022/11/29 02:41:46;;;;;;;144.88;14.52;;;8.30;99.90;;;;;;5072402;28;20115;-86
2022/11/29 02:44:21;;;;;;;40.42;12.15;;;8.30;99.90;;;;;;5048581;28;20127;-85
2022/11/29 02:47:04;;;;;;;51.60;12.85;;;8.20;99.90;;;;;;5088461;28;20040;-85
2022/11/29 02:49:57;;;;;;;45.92;12.35;;;8.20;99.90;;;;;;5055607;28;20036;-85
2022/11/29 02:52:37;;;;;;;52.53;12.35;;;8.20;99.90;;;;;;5055088;28;20430;-86
2022/11/29 02:55:16;;;;;;;86.05;13.65;;;8.20;99.90;;;;;;5072745;28;20041;-86
2022/11/29 02:58:10;;;;;;;41.00;12.00;;;8.20;99.90;;;;;;5056807;28;20040;-85
2022/11/29 03:00:42;;;;;;;56.00;11.60;;;8.20;99.90;;;;;;5054866;28;20056;-85
2022/11/29 03:03:26;;;;;;;45.30;11.48;;;8.20;99.90;;;;;;5071589;28;20048;-85
2022/11/29 03:06:20;;;;;;;80.78;12.05;;;8.20;99.90;;;;;;5070562;28;20093;-86
2022/11/29 03:09:09;;;;;;;54.90;11.88;;;8.20;99.90;;;;;;5046468;28;20036;-86
2022/11/29 03:11:54;;;;;;;61.10;11.13;;;8.10;99.90;;;;;;5055600;28;20076;-86
2022/11/29 03:14:37;;;;;;;46.13;11.45;;;8.20;99.90;;;;;;5055744;28;20041;-86
2022/11/29 03:17:45;;;;;;;85.10;12.07;;;8.10;99.90;;;;;;5070839;28;20045;-86
2022/11/29 03:20:19;;;;;;;53.65;11.93;;;8.10;99.90;;;;;;5034799;28;20481;-85
2022/11/29 03:23:00;;;;;;;33.20;10.82;;;8.10;99.90;;;;;;5066884;28;20041;-86
2022/11/29 03:25:40;;;;;;;40.53;11.77;;;8.10;99.90;;;;;;5070110;28;20036;-86
2022/11/29 03:28:12;;;;;;;43.78;10.98;;;8.10;99.90;;;;;;5054311;28;20049;-86
2022/11/29 03:30:42;;;;;;;61.80;11.57;;;8.10;99.90;;;;;;5070261;28;20076;-85
2022/11/29 03:33:15;;;;;;;49.50;11.50;;;8.10;99.90;;;;;;5035900;28;20393;-85
2022/11/29 03:36:42;;;;;;;38.55;10.65;;;8.10;99.90;;;;;;5069963;28;20048;-85
2022/11/29 03:39:16;;;;;;;30.73;10.85;;;8.10;99.90;;;;;;5042956;28;20131;-86
2022/11/29 03:41:54;;;;;;;32.33;10.55;;;8.10;99.90;;;;;;5043724;28;20493;-85
2022/11/29 03:44:25;;;;;;;50.85;10.70;;;8.10;99.90;;;;;;5049019;28;20123;-86
2022/11/29 03:47:16;;;;;;;34.75;10.75;;;8.10;99.90;;;;;;5071313;28;20036;-86
2022/11/29 03:50:06;;;;;;;60.53;11.15;;;8.00;99.90;;;;;;5069728;28;20037;-86
2022/11/29 03:52:45;;;;;;;40.97;11.18;;;8.00;99.90;;;;;;5053807;28;20097;-86
2022/11/29 03:55:51;;;;;;;38.53;9.50;;;8.00;99.90;;;;;;5053512;28;20040;-85
2022/11/29 03:58:41;;;;;;;40.63;10.77;;;8.00;99.90;;;;;;5052248;28;20052;-86
2022/11/29 04:01:26;;;;;;;52.38;11.63;;;8.00;99.90;;;;;;5052271;28;20049;-85
2022/11/29 04:04:33;;;;;;;39.90;11.52;;;8.00;99.90;;;;;;5086785;28;20037;-85
2022/11/29 04:07:15;;;;;;;66.88;11.05;;;8.00;99.90;;;;;;5053112;28;20396;-86
2022/11/29 04:09:56;;;;;;;41.10;10.85;;;8.20;99.90;;;;;;5051801;28;20055;-86
2022/11/29 04:12:34;;;;;;;38.20;11.15;;;7.90;99.90;;;;;;5053500;28;20036;-85
2022/11/29 04:15:24;;;;;;;83.07;12.77;;;7.90;99.90;;;;;;5069646;28;20362;-86
2022/11/29 04:18:05;;;;;;;124.13;13.40;;;7.90;99.90;;;;;;5053283;28;20090;-86
2022/11/29 04:20:42;;;;;;;182.65;12.73;;;7.90;99.90;;;;;;5053415;28;20047;-85
2022/11/29 04:23:32;;;;;;;116.07;13.90;;;7.90;99.90;;;;;;5069205;28;20036;-86
2022/11/29 04:26:01;;;;;;;42.55;12.48;;;7.80;99.90;;;;;;5069223;28;20880;-86
2022/11/29 04:29:03;;;;;;;134.77;12.95;;;7.80;99.90;;;;;;5069063;28;20456;-85
2022/11/29 04:31:32;;;;;;;74.88;11.82;;;7.80;99.90;;;;;;5052406;28;20056;-86
2022/11/29 04:34:16;;;;;;;156.00;12.70;;;7.80;99.90;;;;;;5053516;28;20045;-86
2022/11/29 04:37:00;;;;;;;44.60;12.32;;;7.80;99.90;;;;;;5045162;28;20037;-86
2022/11/29 04:39:49;;;;;;;69.93;11.60;;;7.80;99.90;;;;;;5053701;28;20044;-86
2022/11/29 04:42:45;;;;;;;104.65;13.85;;;7.80;99.90;;;;;;5070729;28;20036;-85
2022/11/29 04:46:01;;;;;;;68.47;12.00;;;7.80;99.90;;;;;;5070245;28;20036;-85
2022/11/29 04:48:49;;;;;;;46.33;12.73;;;7.80;99.90;;;;;;5034357;28;20036;-85
2022/11/29 04:51:30;;;;;;;58.45;12.55;;;7.80;99.90;;;;;;5043359;28;20071;-85
2022/11/29 04:54:05;;;;;;;71.18;13.27;;;7.80;99.90;;;;;;5050952;28;20136;-85
2022/11/29 04:56:46;;;;;;;66.65;13.73;;;7.80;99.90;;;;;;5057565;28;20518;-86
2022/11/29 04:59:25;;;;;;;54.92;13.15;;;7.80;99.90;;;;;;5056946;28;20040;-85
2022/11/29 05:02:01;;;;;;;87.18;14.30;;;7.90;99.90;;;;;;5089602;28;20049;-86
2022/11/29 05:04:34;;;;;;;;;;;7.80;99.90;;;;;;5055318;28;20032;-86
2022/11/29 05:07:14;;;;;;;161.30;15.07;;;7.90;99.90;;;;;;5073413;28;19920;-85
2022/11/29 05:09:54;;;;;;;118.30;13.07;;;7.80;99.90;;;;;;5074032;28;20090;-86
2022/11/29 05:12:23;;;;;;;104.22;14.82;;;7.80;99.90;;;;;;5074069;28;20032;-86
2022/11/29 05:15:20;;;;;;;211.23;16.42;;;7.80;99.90;;;;;;5074463;28;20396;-85
2022/11/29 05:17:45;;;;;;;;;;;7.80;99.90;;;;;;5057522;28;20040;-86
2022/11/29 05:20:46;;;;;;;104.40;13.33;;;7.70;99.90;;;;;;5074473;28;19928;-86
2022/11/29 05:23:27;;;;;;;184.15;15.68;;;7.80;99.90;;;;;;5056900;28;20053;-86
2022/11/29 05:26:15;;;;;;;177.60;15.43;;;7.80;99.90;;;;;;5074382;28;20036;-85
2022/11/29 05:29:03;;;;;;;77.18;13.98;;;7.80;99.90;;;;;;5071230;28;20561;-86
2022/11/29 05:31:38;;;;;;;76.03;14.70;;;7.80;99.90;;;;;;5056077;28;20129;-85
2022/11/29 05:34:41;;;;;;;97.30;16.15;;;7.80;99.90;;;;;;5072651;28;20068;-86
2022/11/29 05:37:23;;;;;;;139.55;15.05;;;7.80;99.90;;;;;;5072966;28;20044;-86
2022/11/29 05:40:27;;;;;;;264.75;16.45;;;7.80;99.90;;;;;;5063588;28;20040;-86
2022/11/29 05:43:27;;;;;;;80.68;14.75;;;7.80;99.90;;;;;;5072617;28;20036;-86
2022/11/29 05:46:16;;;;;;;210.52;15.60;;;7.80;99.90;;;;;;5073804;28;20068;-85
2022/11/29 05:48:56;;;;;;;110.53;13.48;;;7.70;99.90;;;;;;5066988;28;20135;-85
2022/11/29 05:51:44;;;;;;;330.35;17.80;;;7.70;99.90;;;;;;5049117;28;20075;-85
2022/11/29 05:54:13;;;;;;;102.13;14.02;;;7.80;99.90;;;;;;5056619;28;20044;-86
2022/11/29 05:56:51;;;;;;;362.50;18.77;;;7.70;99.90;;;;;;5056908;28;20489;-85
2022/11/29 05:59:26;;;;;;;150.32;14.75;;;7.70;99.90;;;;;;5055956;28;20033;-86
2022/11/29 06:02:30;;;;;;;145.48;14.50;;;7.70;99.90;;;;;;5056655;28;20078;-85
2022/11/29 06:05:05;;;;;;;207.45;14.65;;;7.70;99.90;;;;;;5055412;28;20041;-86
2022/11/29 06:07:51;;;;;;;243.53;15.20;;;7.70;99.90;;;;;;5056614;28;20051;-86
2022/11/29 06:10:19;;;;;;;296.27;16.83;;;7.70;99.90;;;;;;5056032;28;20048;-85
2022/11/29 06:13:02;;;;;;;124.43;14.45;;;7.60;99.90;;;;;;5055731;28;20793;-86
2022/11/29 06:15:49;;;;;;;269.17;16.25;;;7.60;99.90;;;;;;5055282;28;20121;-85
2022/11/29 06:19:02;;;;;;;127.75;14.25;;;7.60;99.90;;;;;;5072119;28;20044;-86
2022/11/29 06:22:04;;;;;;;78.70;13.25;;;7.60;99.90;;;;;;5055256;28;20128;-85
2022/11/29 06:25:03;;;;;;;124.65;14.52;;;7.60;99.90;;;;;;5046443;28;20065;-85
2022/11/29 06:27:51;;;;;;;147.32;14.48;;;7.60;99.90;;;;;;5055357;28;20051;-85
2022/11/29 06:30:21;;;;;;;103.88;13.73;;;7.60;99.90;;;;;;5071402;28;20051;-82
2022/11/29 06:32:51;;;;;;;129.52;13.57;;;7.60;99.90;;;;;;5070971;28;20051;-82
2022/11/29 06:35:46;;;;;;;189.50;15.30;;;7.60;99.90;;;;;;5056116;28;20048;-81
2022/11/29 06:38:23;;;;;;;64.68;14.10;;;7.60;99.90;;;;;;5077764;28;20544;-81
2022/11/29 06:40:49;;;;;;;106.38;13.65;;;7.60;99.90;;;;;;5067522;28;20068;-81
2022/11/29 06:43:16;;;;;;;186.07;14.77;;;7.60;99.90;;;;;;5021563;28;20085;-81
2022/11/29 06:45:49;;;;;;;140.32;14.57;;;7.60;99.90;;;;;;5069528;28;20036;-80
2022/11/29 06:48:25;;;;;;;144.68;14.50;;;7.60;99.90;;;;;;5070384;28;20044;-80
2022/11/29 06:51:23;;;;;;;;;;;7.60;99.90;;;;;;5054902;28;20059;-80
2022/11/29 06:54:13;;;;;;;93.28;13.98;;;7.50;99.90;;;;;;5020490;28;19916;-80
2022/11/29 06:57:04;;;;;;;122.25;12.82;;;7.60;99.90;;;;;;5086788;28;20044;-80
2022/11/29 06:59:57;;;;;;;118.30;13.30;;;7.60;99.90;;;;;;5070287;28;20086;-81
2022/11/29 07:02:41;;;;;;;77.63;12.52;;;7.50;99.90;;;;;;5069958;28;20157;-82
2022/11/29 07:05:18;;;;;;;95.30;13.13;;;7.50;99.90;;;;;;5070771;28;20037;-81
2022/11/29 07:07:45;;;;;;;125.93;12.88;;;7.60;99.90;;;;;;5054139;28;20083;-81
2022/11/29 07:10:19;;;;;;;84.75;11.63;;;7.60;99.90;;;;;;5020866;28;20043;-81
2022/11/29 07:12:47;;;;;;;88.70;11.98;;;7.50;99.90;;;;;;5069654;28;20044;-81
2022/11/29 07:15:16;;;;;;;93.70;13.00;;;7.60;99.90;;;;;;5053126;28;20049;-83
2022/11/29 07:17:53;;;;;;;104.80;12.27;;;7.50;99.90;;;;;;5053569;28;20032;-82
2022/11/29 07:20:49;;;;;;;72.85;11.73;;;7.50;99.90;;;;;;5070980;28;20075;-82
2022/11/29 07:23:41;;;;;;;61.28;11.15;;;7.50;99.90;;;;;;5053629;28;20374;-80
2022/11/29 07:26:20;;;;;;;90.78;12.43;;;7.50;99.90;;;;;;5069819;28;20094;-80
2022/11/29 07:29:07;;;;;;;79.50;11.75;;;7.50;99.90;;;;;;5053112;28;20041;-81
2022/11/29 07:31:35;;;;;;;133.25;11.40;;;7.50;99.90;;;;;;5052560;28;20068;-80
2022/11/29 07:34:37;;;;;;;77.63;11.98;;;7.50;99.90;;;;;;5045120;28;20137;-80
2022/11/29 07:37:11;;;;;;;87.03;12.27;;;7.50;99.90;;;;;;5069442;28;20119;-81
2022/11/29 07:39:52;;;;;;;111.25;11.98;;;7.50;99.90;;;;;;5051137;28;20073;-81
2022/11/29 07:42:35;;;;;;;92.95;12.77;;;7.50;99.90;;;;;;5069357;28;20037;-80
2022/11/29 07:45:11;;;;;;;59.45;12.02;;;7.50;99.90;;;;;;5070180;28;20059;-84
2022/11/29 07:47:37;;;;;;;100.85;13.15;;;7.50;99.90;;;;;;5051391;28;20190;-81
2022/11/29 07:50:03;;;;;;;80.43;12.23;;;8.00;99.90;;;;;;5019519;28;20216;-81
2022/11/29 07:52:29;;;;;;;81.35;12.32;;;7.50;99.90;;;;;;5069317;28;20049;-81
2022/11/29 07:54:55;;;;;;;48.97;11.88;;;7.50;99.90;;;;;;5052070;28;20051;-82
2022/11/29 07:57:21;;;;;;;80.25;13.10;;;7.50;99.90;;;;;;5037544;28;20032;-81
2022/11/29 07:59:47;;;;;;;79.72;12.68;;;7.70;99.90;;;;;;5036407;28;20598;-81
2022/11/29 08:02:12;;;;;;;116.95;13.65;;;7.40;99.90;;;;;;5035589;28;20225;-80
2022/11/29 08:04:42;;;;;;;79.15;12.93;;;7.50;99.90;;;;;;5053642;28;20052;-80
2022/11/29 08:07:09;;;;;;;97.65;13.23;;;7.50;99.90;;;;;;5053821;28;20188;-80
2022/11/29 08:09:34;;;;;;;79.18;12.95;;;7.50;99.90;;;;;;5036268;28;20484;-81
2022/11/29 08:12:00;;;;;;;63.92;11.73;;;7.40;99.90;;;;;;5070853;28;20102;-80
2022/11/29 08:14:29;;;;;;;92.93;12.02;;;7.50;99.90;;;;;;5052819;28;20032;-79
2022/11/29 08:16:55;;;;;;;107.25;12.65;;;8.40;99.90;;;;;;5054846;28;20090;-79
2022/11/29 08:19:21;;;;;;;112.78;11.60;;;7.40;99.90;;;;;;5027417;28;20044;-78
2022/11/29 08:21:47;;;;;;;73.32;11.90;;;7.40;99.90;;;;;;5030433;28;20041;-78
2022/11/29 08:24:12;;;;;;;43.80;10.65;;;7.40;99.90;;;;;;5020726;28;20044;-78
2022/11/29 08:26:38;;;;;;;61.45;10.57;;;7.40;99.90;;;;;;5030184;28;20040;-79
2022/11/29 08:29:04;;;;;;;69.28;10.32;;;7.40;99.90;;;;;;5057500;28;20048;-79
2022/11/29 08:31:30;;;;;;;47.00;9.65;;;7.40;99.90;;;;;;5056058;28;20182;-78
2022/11/29 08:33:55;;;;;;;105.03;9.52;;;7.30;99.90;;;;;;5057516;28;20615;-79
2022/11/29 08:36:21;;;;;;;93.57;8.90;;;7.30;99.90;;;;;;5041172;28;20054;-78
2022/11/29 08:38:47;;;;;;;69.63;10.05;;;7.30;99.90;;;;;;5036790;28;20754;-78
2022/11/29 08:41:15;;;;;;;47.30;9.13;;;7.70;99.90;;;;;;5071318;28;20052;-77
2022/11/29 08:43:41;;;;;;;44.13;9.10;;;7.30;99.90;;;;;;5069432;28;20043;-78
2022/11/29 08:46:07;;;;;;;80.35;9.93;;;7.30;99.90;;;;;;5053238;28;20045;-77
2022/11/29 08:48:34;;;;;;;116.40;9.85;;;7.40;99.90;;;;;;5070745;28;20080;-78
2022/11/29 08:51:00;;;;;;;84.55;9.13;;;7.30;99.90;;;;;;5038108;28;20047;-80
2022/11/29 08:53:42;;;;;;;62.03;9.60;;;7.60;99.90;;;;;;5071903;28;20477;-79
2022/11/29 08:56:12;;;;;;;40.95;9.43;;;7.20;99.90;;;;;;5039365;28;20512;-80
2022/11/29 08:58:37;;;;;;;84.28;9.55;;;7.30;99.90;;;;;;5056279;28;20433;-78
2022/11/29 09:01:05;;;;;;;28.30;8.98;;;7.30;99.90;;;;;;5054435;28;20121;-83
2022/11/29 09:06:16;;;;;;;59.20;9.15;;;7.30;99.90;;;;;;5073185;28;20983;-82
2022/11/29 09:08:43;;;;;;;76.18;10.00;;;7.30;99.90;;;;;;5074147;28;20048;-83
2022/11/29 09:11:21;;;;;;;38.83;8.95;;;7.30;99.90;;;;;;5057854;28;20097;-83
2022/11/29 09:13:52;;;;;;;30.63;8.27;;;7.30;99.90;;;;;;5058365;28;20048;-82
2022/11/29 09:16:21;;;;;;;38.08;9.40;;;7.30;99.90;;;;;;5073588;28;20041;-82
2022/11/29 09:18:51;;;;;;;61.15;9.38;;;7.20;99.90;;;;;;5057192;28;20166;-80
2022/11/29 09:21:17;;;;;;;89.82;9.30;;;7.60;99.90;;;;;;5040559;28;20041;-80
2022/11/29 09:23:44;;;;;;;89.97;9.68;;;8.70;99.90;;;;;;5056501;28;20107;-82
2022/11/29 09:26:16;;;;;;;122.45;9.48;;;7.30;99.90;;;;;;5055419;28;20411;-80
2022/11/29 09:28:42;;;;;;;64.80;9.15;;;7.60;99.90;;;;;;5070200;28;20428;-79
2022/11/29 09:31:11;;;;;;;34.03;9.77;;;7.30;99.90;;;;;;5049676;28;20044;-79
2022/11/29 09:33:38;;;;;;;39.35;9.63;;;7.30;99.90;;;;;;5051655;28;20040;-79
2022/11/29 09:36:09;;;;;;;32.95;9.40;;;7.30;99.90;;;;;;5072498;28;20040;-78
2022/11/29 09:38:35;;;;;;;49.22;10.18;;;7.30;99.90;;;;;;5053951;28;20084;-78
2022/11/29 09:41:36;;;;;;;86.32;11.85;;;7.30;99.90;;;;;;5070704;28;20496;-77
2022/11/29 09:44:13;;;;;;;48.55;10.63;;;7.40;99.90;;;;;;5070586;28;20119;-78
2022/11/29 09:46:51;;;;;;;55.08;12.20;;;7.40;99.90;;;;;;5053177;28;20441;-79
2022/11/29 09:49:17;;;;;;;49.33;11.55;;;7.40;99.90;;;;;;5071705;28;20105;-77
2022/11/29 09:52:25;;;;;;;36.70;11.98;;;7.40;99.90;;;;;;5054032;28;20123;-77
2022/11/29 09:55:28;;;;;;;62.25;12.43;;;7.40;99.90;;;;;;5071782;28;20048;-77
2022/11/29 09:57:55;;;;;;;41.38;12.23;;;7.50;99.90;;;;;;5071921;28;20392;-80
2022/11/29 10:00:21;;;;;;;53.00;12.63;;;7.50;99.90;;;;;;5055553;28;20132;-80
2022/11/29 10:02:53;;;;;;;48.22;11.93;;;7.50;99.90;;;;;;5055427;28;20123;-78
2022/11/29 10:05:30;;;;;;;44.10;11.68;;;7.50;99.90;;;;;;5052646;28;20050;-78
2022/11/29 10:08:37;;;;;;;40.50;11.63;;;7.50;99.90;;;;;;5069481;28;20095;-81
2022/11/29 10:11:35;;;;;;;39.30;12.20;;;7.60;99.90;;;;;;5053756;28;20060;-80
2022/11/29 10:14:23;;;;;;;25.42;11.82;;;7.60;99.90;;;;;;5072474;28;20044;-80
2022/11/29 10:16:59;;;;;;;23.75;11.65;;;7.70;99.90;;;;;;5070815;28;20036;-80
2022/11/29 10:19:58;;;;;;;24.23;11.68;;;7.80;99.90;;;;;;5053958;28;20097;-80
2022/11/29 10:22:32;;;;;;;28.17;12.52;;;7.80;99.90;;;;;;5066308;28;20049;-80
2022/11/29 10:25:01;;;;;;;30.75;11.75;;;7.80;99.90;;;;;;5070636;28;20039;-80
2022/11/29 10:27:28;;;;;;;22.42;12.15;;;7.80;99.90;;;;;;5070341;28;20044;-81
2022/11/29 10:29:55;;;;;;;25.35;12.13;;;7.90;99.90;;;;;;5054155;28;20040;-81
2022/11/29 10:32:23;;;;;;;32.22;11.85;;;7.90;99.90;;;;;;5037691;28;20554;-81
2022/11/29 10:34:50;;;;;;;24.77;11.63;;;8.00;99.90;;;;;;5054564;28;20036;-80
2022/11/29 10:37:19;;;;;;;31.77;11.57;;;8.00;99.90;;;;;;5072417;28;20036;-80
2022/11/29 10:39:53;;;;;;;26.40;11.93;;;8.10;99.90;;;;;;5072206;28;20040;-80
2022/11/29 10:45:25;;;;;;;23.58;11.10;;;8.10;99.90;;;;;;5070581;28;20060;-80
2022/11/29 10:47:54;;;;;;;23.65;11.57;;;8.20;99.90;;;;;;5069323;28;20040;-80
2022/11/29 10:50:28;;;;;;;23.60;10.77;;;8.20;99.90;;;;;;5052639;28;20059;-80
2022/11/29 10:53:24;;;;;;;26.65;11.05;;;8.30;99.90;;;;;;5071050;28;20051;-80
2022/11/29 10:56:06;;;;;;;22.00;11.27;;;8.30;99.90;;;;;;5070428;28;20117;-79
2022/11/29 10:58:32;;;;;;;21.35;11.55;;;8.40;99.90;;;;;;5053158;28;20135;-80
2022/11/29 11:01:06;;;;;;;21.30;10.50;;;8.40;99.90;;;;;;5054102;28;20083;-79
2022/11/29 11:03:42;;;;;;;21.65;11.68;;;8.40;99.90;;;;;;5050215;28;20064;-79
2022/11/29 11:06:12;;;;;;;25.98;11.15;;;8.50;99.90;;;;;;5053042;28;20036;-80
2022/11/29 11:08:42;;;;;;;20.40;10.50;;;8.50;99.90;;;;;;5069828;28;20044;-80
2022/11/29 11:11:09;;;;;;;32.83;11.48;;;8.50;99.90;;;;;;5054403;28;20046;-80
2022/11/29 11:13:36;;;;;;;20.35;10.57;;;8.50;99.90;;;;;;5052990;28;20048;-79
2022/11/29 11:16:19;;;;;;;22.55;11.20;;;8.50;99.90;;;;;;5052869;28;20043;-80
2022/11/29 11:18:47;;;;;;;21.08;9.80;;;8.50;99.90;;;;;;5052300;28;20139;-78
2022/11/29 11:21:16;;;;;;;25.23;9.82;;;8.50;99.90;;;;;;5062212;28;20123;-79
2022/11/29 11:23:58;;;;;;;19.90;9.63;;;8.50;99.90;;;;;;5069077;28;20135;-79
2022/11/29 11:26:25;;;;;;;28.35;10.85;;;8.50;99.90;;;;;;5070008;28;20059;-79
2022/11/29 11:28:58;;;;;;;23.40;10.68;;;8.70;99.90;;;;;;5036974;28;20045;-79
2022/11/29 11:31:37;;;;;;;21.08;10.02;;;9.10;99.90;;;;;;5071452;28;20076;-79
2022/11/29 11:34:34;;;;;;;22.90;10.77;;;9.60;99.90;;;;;;5071004;28;20079;-79
2022/11/29 11:37:20;;;;;;;22.45;10.32;;;10.00;99.90;;;;;;5051445;28;20040;-78
2022/11/29 11:39:48;;;;;;;22.27;10.23;;;10.20;99.90;;;;;;5069178;28;20127;-79
2022/11/29 11:42:37;;;;;;;15.90;8.50;;;10.20;99.90;;;;;;5065462;28;20939;-78
2022/11/29 11:45:24;;;;;;;19.08;8.95;;;10.10;99.90;;;;;;5068797;28;20040;-78
2022/11/29 11:48:11;;;;;;;17.73;7.78;;;9.90;99.90;;;;;;5070219;28;20063;-79
2022/11/29 11:50:43;;;;;;;18.85;9.55;;;9.70;99.90;;;;;;5052032;28;20041;-81
2022/11/29 11:53:23;;;;;;;19.55;8.35;;;9.70;99.90;;;;;;5068705;28;20110;-81
2022/11/29 11:56:13;;;;;;;22.65;8.00;;;9.50;99.90;;;;;;5052438;28;20040;-80
2022/11/29 11:58:46;;;;;;;14.88;8.38;;;9.50;99.90;;;;;;5027228;28;20049;-81
2022/11/29 12:01:11;;;;;;;17.38;8.30;;;9.50;99.90;;;;;;5058478;28;20109;-80
2022/11/29 12:04:10;;;;;;;12.80;7.72;;;9.20;99.90;;;;;;5058814;28;20060;-80
2022/11/29 12:06:45;;;;;;;13.98;7.30;;;9.40;99.90;;;;;;5074866;28;20037;-79
2022/11/29 12:09:18;;;;;;;16.80;8.20;;;9.40;99.90;;;;;;5059891;28;20059;-79
2022/11/29 12:11:49;;;;;;;17.67;7.88;;;9.40;99.90;;;;;;5059146;28;21180;-79
2022/11/29 12:14:45;;;;;;;13.82;7.50;;;9.30;99.90;;;;;;5059707;28;20040;-80
2022/11/29 12:17:27;;;;;;;17.42;7.93;;;9.30;99.90;;;;;;5058526;28;20405;-80
2022/11/29 12:19:55;;;;;;;18.05;7.78;;;9.20;99.90;;;;;;5074237;28;20048;-80
2022/11/29 12:22:27;;;;;;;19.90;8.18;;;9.10;99.90;;;;;;5076169;28;20062;-82
2022/11/29 12:24:59;;;;;;;18.70;7.88;;;9.10;99.90;;;;;;5058058;28;20037;-82
2022/11/29 12:27:25;;;;;;;17.08;7.95;;;9.10;99.90;;;;;;5077370;28;20085;-81
2022/11/29 12:29:51;;;;;;;18.38;8.77;;;9.10;99.90;;;;;;5043044;28;20091;-81
2022/11/29 12:32:49;;;;;;;21.42;8.77;;;9.00;99.90;;;;;;5075809;28;20045;-81
2022/11/29 12:35:43;;;;;;;18.83;8.90;;;9.10;99.90;;;;;;5068905;28;20119;-81
2022/11/29 12:38:11;;;;;;;22.40;9.18;;;9.00;99.90;;;;;;5060047;28;20508;-81
2022/11/29 12:40:57;;;;;;;15.65;8.40;;;9.00;99.90;;;;;;5060490;28;20059;-82
2022/11/29 12:43:49;;;;;;;20.52;9.90;;;9.00;99.90;;;;;;5059220;28;20546;-84
2022/11/29 12:46:25;;;;;;;18.88;9.35;;;9.00;99.90;;;;;;5058044;28;20044;-80
2022/11/29 12:49:29;;;;;;;15.38;9.18;;;9.00;99.90;;;;;;5055192;28;20078;-80
2022/11/29 12:51:57;;;;;;;19.05;9.30;;;9.00;99.90;;;;;;5068729;28;20550;-79
2022/11/29 12:54:39;;;;;;;17.27;9.73;;;9.00;99.90;;;;;;5076795;28;20090;-79
2022/11/29 12:57:34;;;;;;;20.15;10.27;;;9.00;99.90;;;;;;5060334;28;20083;-80
2022/11/29 13:00:13;;;;;;;20.00;9.50;;;9.00;99.90;;;;;;5050908;28;20047;-80
2022/11/29 13:02:51;;;;;;;22.65;10.05;;;8.90;99.90;;;;;;5042459;28;20417;-81
2022/11/29 13:05:29;;;;;;;16.90;9.30;;;8.90;99.90;;;;;;5092849;28;20072;-81
2022/11/29 13:08:06;;;;;;;18.73;9.82;;;8.90;99.90;;;;;;5076958;28;20081;-83
2022/11/29 13:10:57;;;;;;;16.30;9.77;;;8.90;99.90;;;;;;5058514;28;20037;-81
2022/11/29 13:13:36;;;;;;;18.50;10.77;;;8.90;99.90;;;;;;5054937;28;20050;-80
2022/11/29 13:16:13;;;;;;;20.05;10.40;;;8.90;99.90;;;;;;5056164;28;20036;-79
2022/11/29 13:19:01;;;;;;;21.45;11.05;;;8.90;99.90;;;;;;5072814;28;20075;-80
2022/11/29 13:21:36;;;;;;;20.70;10.32;;;8.90;99.90;;;;;;5055588;28;20040;-80
2022/11/29 13:24:08;;;;;;;27.17;10.07;;;8.90;99.90;;;;;;5073478;28;20047;-80
2022/11/29 13:26:35;;;;;;;23.38;11.05;;;8.90;99.90;;;;;;5072524;28;20093;-81
2022/11/29 13:29:03;;;;;;;20.02;10.60;;;8.90;99.90;;;;;;5037989;28;20047;-80
2022/11/29 13:31:29;;;;;;;19.85;10.90;;;8.90;99.90;;;;;;5055403;28;20043;-82
2022/11/29 13:34:16;;;;;;;21.40;10.93;;;8.90;99.90;;;;;;5056958;28;20127;-81